Time;durP1;ratioP1;P1;durP2;ratioP2;P2;SDS_P1;SDS_P2;PMS_P1;PMS_P2;Temp;Humidity;BMP_temperature;BMP_pressure;BME280_temperature;BME280_humidity;BME280_pressure;Samples;Min_cycle;Max_cycle;Signal;HPM_P1;HPM_P2
2021/03/22 00:01:42;;;;;;;9.43;2.50;;;4.70;94.70;;;;;;5066990;28;20461;-38
2021/03/22 00:04:08;;;;;;;10.00;2.53;;;4.70;94.70;;;;;;5066969;28;20184;-37
2021/03/22 00:06:36;;;;;;;14.13;2.80;;;4.60;94.70;;;;;;5065921;28;20150;-37
2021/03/22 00:09:02;;;;;;;7.10;2.25;;;4.60;94.70;;;;;;5066535;28;20036;-38
2021/03/22 00:11:28;;;;;;;8.02;2.45;;;4.60;94.70;;;;;;5065862;28;20043;-41
2021/03/22 00:13:53;;;;;;;7.25;1.80;;;4.60;94.70;;;;;;5065046;28;20020;-39
2021/03/22 00:16:19;;;;;;;10.50;2.28;;;4.60;94.80;;;;;;5065630;28;20032;-39
2021/03/22 00:18:44;;;;;;;15.68;3.08;;;4.60;94.90;;;;;;5066110;28;20075;-37
2021/03/22 00:21:13;;;;;;;9.45;2.47;;;4.60;94.90;;;;;;5066108;28;20119;-38
2021/03/22 00:23:39;;;;;;;11.40;2.65;;;4.60;95.00;;;;;;5065788;28;20102;-34
2021/03/22 00:26:05;;;;;;;8.43;3.05;;;4.70;95.00;;;;;;5066062;28;20492;-41
2021/03/22 00:28:38;;;;;;;14.10;3.13;;;4.70;94.80;;;;;;5065546;28;20071;-36
2021/03/22 00:31:04;;;;;;;11.98;3.10;;;4.80;94.80;;;;;;5046149;28;20445;-36
2021/03/22 00:33:30;;;;;;;14.88;3.25;;;4.80;94.80;;;;;;5061119;28;20029;-38
2021/03/22 00:35:55;;;;;;;13.57;3.65;;;4.80;94.70;;;;;;5065947;28;20028;-39
2021/03/22 00:38:21;;;;;;;10.95;3.05;;;4.70;94.70;;;;;;5065674;28;20036;-38
2021/03/22 00:40:47;;;;;;;9.48;3.13;;;4.70;94.70;;;;;;5066334;28;20021;-39
2021/03/22 00:43:13;;;;;;;17.00;3.88;;;4.60;94.80;;;;;;5065222;28;20452;-38
2021/03/22 00:45:39;;;;;;;20.05;4.43;;;4.60;95.30;;;;;;5066413;28;20127;-40
2021/03/22 00:48:05;;;;;;;11.05;4.05;;;4.50;96.20;;;;;;5065693;28;20036;-37
2021/03/22 00:50:38;;;;;;;18.95;4.50;;;4.50;96.00;;;;;;5065200;28;20089;-37
2021/03/22 00:53:05;;;;;;;17.83;4.13;;;4.50;96.60;;;;;;5065395;28;20028;-38
2021/03/22 00:55:31;;;;;;;13.57;3.35;;;4.40;96.20;;;;;;5065493;28;20167;-38
2021/03/22 00:57:56;;;;;;;11.77;3.42;;;4.40;96.20;;;;;;5065592;28;20123;-37
2021/03/22 01:00:34;;;;;;;10.68;3.80;;;4.40;96.10;;;;;;5065537;28;20036;-39
2021/03/22 01:02:59;;;;;;;15.10;3.70;;;4.40;96.00;;;;;;5065886;28;20120;-39
2021/03/22 01:05:26;;;;;;;10.35;3.40;;;4.40;96.00;;;;;;5065556;28;20027;-36
2021/03/22 01:07:52;;;;;;;11.95;3.20;;;4.40;95.90;;;;;;5065460;28;20052;-38
2021/03/22 01:10:53;;;;;;;20.67;4.25;;;4.30;95.90;;;;;;5064570;28;20078;-36
2021/03/22 01:13:26;;;;;;;10.77;3.78;;;4.30;96.40;;;;;;5065479;28;20028;-37
2021/03/22 01:15:52;;;;;;;20.15;4.78;;;4.30;96.20;;;;;;5065174;28;20016;-39
2021/03/22 01:18:31;;;;;;;16.80;5.00;;;4.20;97.10;;;;;;5064842;28;20147;-36
2021/03/22 01:21:23;;;;;;;16.00;4.18;;;4.20;97.40;;;;;;5062437;28;20065;-35
2021/03/22 01:23:49;;;;;;;12.43;4.05;;;4.30;96.90;;;;;;5059370;28;20036;-38
2021/03/22 01:26:18;;;;;;;15.55;4.00;;;4.20;96.80;;;;;;5064914;28;20012;-38
2021/03/22 01:28:43;;;;;;;15.95;3.70;;;4.30;96.70;;;;;;5064941;28;20090;-41
2021/03/22 01:31:09;;;;;;;10.98;3.72;;;4.30;96.60;;;;;;5064405;28;20029;-36
2021/03/22 01:33:36;;;;;;;13.10;4.10;;;4.20;96.60;;;;;;5065366;28;20025;-37
2021/03/22 01:36:10;;;;;;;18.58;4.53;;;4.20;96.60;;;;;;5064712;28;20024;-38
2021/03/22 01:38:36;;;;;;;14.98;4.55;;;4.20;96.70;;;;;;5064515;28;20185;-37
2021/03/22 01:41:20;;;;;;;15.48;5.18;;;4.10;96.90;;;;;;5064627;28;20035;-38
2021/03/22 01:44:07;;;;;;;18.77;5.70;;;4.10;97.80;;;;;;5065243;28;20466;-37
2021/03/22 01:46:33;;;;;;;21.92;5.93;;;4.10;98.00;;;;;;5063873;28;20047;-43
2021/03/22 01:49:01;;;;;;;18.33;5.05;;;4.10;98.20;;;;;;5064879;28;20044;-39
2021/03/22 01:51:30;;;;;;;21.30;5.60;;;4.00;98.20;;;;;;5064839;28;20032;-37
2021/03/22 01:53:55;;;;;;;21.20;5.93;;;4.10;98.00;;;;;;5064508;28;20032;-37
2021/03/22 01:56:24;;;;;;;25.80;6.85;;;4.10;98.70;;;;;;5064265;28;20071;-36
2021/03/22 01:58:51;;;;;;;23.95;6.40;;;4.10;99.30;;;;;;5064486;28;20561;-36
2021/03/22 02:01:19;;;;;;;21.77;6.38;;;4.10;99.20;;;;;;5064196;28;20052;-38
2021/03/22 02:03:44;;;;;;;23.55;6.28;;;4.10;99.30;;;;;;5064492;28;20126;-37
2021/03/22 02:06:10;;;;;;;20.73;6.00;;;4.00;99.50;;;;;;5063966;28;20734;-35
2021/03/22 02:08:44;;;;;;;17.50;5.70;;;4.00;99.50;;;;;;5064212;28;20033;-37
2021/03/22 02:11:25;;;;;;;26.13;6.85;;;4.00;99.30;;;;;;5064123;28;20017;-38
2021/03/22 02:13:54;;;;;;;23.50;7.38;;;4.00;99.40;;;;;;5063921;28;20425;-38
2021/03/22 02:16:25;;;;;;;18.80;6.18;;;3.90;99.30;;;;;;5063622;28;20037;-38
2021/03/22 02:19:30;;;;;;;22.60;6.45;;;3.90;99.30;;;;;;5064233;28;20060;-39
2021/03/22 02:22:33;;;;;;;17.85;5.20;;;3.90;99.20;;;;;;5063738;28;20361;-38
2021/03/22 02:25:11;;;;;;;32.10;7.22;;;3.90;99.10;;;;;;5044558;28;20075;-35
2021/03/22 02:28:11;;;;;;;24.52;7.15;;;3.90;99.20;;;;;;5061311;28;20374;-38
2021/03/22 02:31:05;;;;;;;24.65;7.22;;;3.90;99.50;;;;;;5064435;28;20056;-38
2021/03/22 02:34:08;;;;;;;22.67;6.20;;;3.90;99.60;;;;;;5062651;28;20067;-38
2021/03/22 02:37:07;;;;;;;23.50;6.88;;;4.00;99.70;;;;;;5046811;28;20144;-38
2021/03/22 02:39:46;;;;;;;24.38;6.10;;;4.00;99.60;;;;;;5065433;28;20040;-38
2021/03/22 02:42:13;;;;;;;18.30;6.53;;;4.10;99.60;;;;;;5068075;28;20020;-34
2021/03/22 02:44:39;;;;;;;20.50;6.10;;;4.10;99.50;;;;;;5068166;28;20120;-38
2021/03/22 02:47:19;;;;;;;19.75;5.93;;;4.20;99.50;;;;;;5067906;28;20443;-39
2021/03/22 02:49:46;;;;;;;20.13;6.45;;;4.20;99.40;;;;;;5067873;28;20467;-39
2021/03/22 02:52:29;;;;;;;27.02;6.22;;;4.30;99.30;;;;;;5067660;28;20417;-38
2021/03/22 02:55:02;;;;;;;25.05;7.28;;;4.30;99.40;;;;;;5068368;28;20036;-34
2021/03/22 02:57:37;;;;;;;29.85;7.28;;;4.40;99.40;;;;;;5068066;28;20124;-36
2021/03/22 03:00:29;;;;;;;22.65;7.60;;;4.40;99.40;;;;;;5067991;28;20031;-36
2021/03/22 03:02:58;;;;;;;28.50;7.40;;;4.40;99.50;;;;;;5067332;28;20356;-37
2021/03/22 03:05:28;;;;;;;32.83;8.00;;;4.40;99.50;;;;;;5068180;28;20097;-36
2021/03/22 03:07:58;;;;;;;29.15;7.90;;;4.40;99.50;;;;;;5067909;28;20025;-37
2021/03/22 03:10:24;;;;;;;21.58;7.40;;;4.50;99.50;;;;;;5067219;28;20218;-39
2021/03/22 03:12:50;;;;;;;28.33;7.60;;;4.50;99.50;;;;;;5067734;28;20135;-39
2021/03/22 03:15:17;;;;;;;25.13;8.13;;;4.60;99.50;;;;;;5067824;28;20059;-38
2021/03/22 03:17:43;;;;;;;23.33;7.45;;;4.60;99.50;;;;;;5067051;28;20028;-37
2021/03/22 03:20:13;;;;;;;19.42;7.70;;;4.60;99.40;;;;;;5067527;28;20031;-38
2021/03/22 03:22:42;;;;;;;20.05;6.78;;;4.70;99.30;;;;;;5067395;28;20032;-34
2021/03/22 03:25:12;;;;;;;13.90;6.35;;;4.80;99.20;;;;;;5067115;28;20116;-37
2021/03/22 03:27:37;;;;;;;13.82;6.10;;;4.80;99.00;;;;;;5067047;28;20392;-37
2021/03/22 03:30:09;;;;;;;27.08;8.23;;;4.90;98.90;;;;;;5067377;28;20025;-33
2021/03/22 03:32:34;;;;;;;26.00;8.60;;;4.90;98.90;;;;;;5067371;28;20467;-37
2021/03/22 03:35:01;;;;;;;21.35;7.65;;;4.90;98.80;;;;;;5067229;28;20035;-35
2021/03/22 03:37:26;;;;;;;20.80;7.57;;;4.90;98.80;;;;;;5067195;28;20025;-38
2021/03/22 03:39:52;;;;;;;30.73;8.52;;;4.90;98.80;;;;;;5067365;28;20047;-33
2021/03/22 03:42:18;;;;;;;23.63;8.32;;;5.00;98.80;;;;;;5067563;28;20033;-39
2021/03/22 03:44:45;;;;;;;17.00;6.70;;;5.00;98.80;;;;;;5066837;28;20033;-36
2021/03/22 03:47:11;;;;;;;23.42;6.85;;;5.00;98.70;;;;;;5067044;28;20036;-35
2021/03/22 03:49:36;;;;;;;26.25;8.27;;;5.10;98.70;;;;;;5066953;28;20438;-39
2021/03/22 03:52:04;;;;;;;22.35;7.90;;;5.10;98.60;;;;;;5066424;28;20567;-38
2021/03/22 03:54:30;;;;;;;19.83;7.82;;;5.10;98.60;;;;;;5067146;28;20111;-39
2021/03/22 03:56:55;;;;;;;17.65;7.82;;;5.10;98.60;;;;;;5067307;28;20147;-37
2021/03/22 03:59:21;;;;;;;19.00;6.72;;;5.20;98.50;;;;;;5066488;28;20021;-35
2021/03/22 04:01:46;;;;;;;18.63;6.32;;;5.20;98.50;;;;;;5067065;28;20413;-39
2021/03/22 04:04:12;;;;;;;16.73;7.53;;;5.20;98.40;;;;;;5067164;28;20081;-40
2021/03/22 04:06:38;;;;;;;17.98;7.53;;;5.20;98.40;;;;;;5066285;28;20025;-37
2021/03/22 04:09:09;;;;;;;23.85;8.07;;;5.20;98.40;;;;;;5066920;28;20082;-39
2021/03/22 04:11:40;;;;;;;22.65;7.88;;;5.20;98.30;;;;;;5063582;28;20020;-39
2021/03/22 04:14:07;;;;;;;18.95;7.60;;;5.20;98.30;;;;;;5066320;28;20028;-34
2021/03/22 04:16:34;;;;;;;20.15;6.00;;;5.20;98.30;;;;;;5066184;28;20440;-32
2021/03/22 04:19:00;;;;;;;17.55;5.95;;;5.30;98.30;;;;;;5067115;28;20527;-37
2021/03/22 04:21:28;;;;;;;16.98;6.43;;;5.20;98.20;;;;;;5065527;28;20024;-38
2021/03/22 04:23:55;;;;;;;16.20;6.10;;;5.30;98.20;;;;;;5066496;28;20029;-39
2021/03/22 04:26:21;;;;;;;15.10;6.60;;;5.30;98.10;;;;;;5066247;28;20483;-39
2021/03/22 04:28:47;;;;;;;13.32;5.70;;;5.40;98.10;;;;;;5066333;28;20385;-35
2021/03/22 04:31:15;;;;;;;18.80;6.35;;;5.40;98.00;;;;;;5066057;28;20486;-38
2021/03/22 04:33:41;;;;;;;19.75;7.05;;;5.40;98.00;;;;;;5065756;28;20028;-44
2021/03/22 04:36:07;;;;;;;18.10;8.00;;;5.40;98.00;;;;;;5066411;28;20028;-37
2021/03/22 04:38:32;;;;;;;28.60;8.93;;;5.40;98.20;;;;;;5066491;28;20110;-39
2021/03/22 04:40:58;;;;;;;20.17;7.53;;;5.40;98.30;;;;;;5065827;28;20021;-37
2021/03/22 04:43:24;;;;;;;19.48;7.35;;;5.40;98.20;;;;;;5066213;28;20020;-36
2021/03/22 04:45:49;;;;;;;20.35;7.18;;;5.40;98.10;;;;;;5065842;28;20032;-37
2021/03/22 04:48:16;;;;;;;20.35;6.95;;;5.40;98.10;;;;;;5065355;28;20100;-40
2021/03/22 04:50:42;;;;;;;23.30;8.13;;;5.40;98.00;;;;;;5065847;28;21363;-36
2021/03/22 04:53:08;;;;;;;16.70;7.25;;;5.40;98.00;;;;;;5065832;28;20187;-36
2021/03/22 04:55:33;;;;;;;19.35;6.60;;;5.40;98.00;;;;;;5064605;28;20143;-39
2021/03/22 04:57:59;;;;;;;15.05;6.65;;;5.50;97.90;;;;;;5066136;28;20083;-39
2021/03/22 05:00:36;;;;;;;14.45;6.15;;;5.50;97.90;;;;;;5066092;28;20070;-37
2021/03/22 05:03:02;;;;;;;16.77;6.53;;;5.50;97.90;;;;;;5064233;28;20429;-40
2021/03/22 05:05:27;;;;;;;14.48;5.70;;;5.50;97.90;;;;;;5066735;28;20089;-35
2021/03/22 05:07:54;;;;;;;12.57;5.45;;;5.50;97.80;;;;;;5065169;28;20569;-37
2021/03/22 05:10:27;;;;;;;16.42;6.95;;;5.50;97.90;;;;;;5065096;28;20028;-40
2021/03/22 05:12:53;;;;;;;17.67;6.25;;;5.50;98.10;;;;;;5065493;28;20458;-37
2021/03/22 05:15:19;;;;;;;17.30;6.47;;;5.50;98.00;;;;;;5065082;28;20488;-35
2021/03/22 05:17:45;;;;;;;30.40;7.95;;;5.50;98.10;;;;;;5064924;28;20031;-36
2021/03/22 05:20:32;;;;;;;16.27;6.28;;;5.50;98.50;;;;;;5065498;28;20024;-35
2021/03/22 05:23:10;;;;;;;19.23;8.07;;;5.50;98.40;;;;;;5064719;28;20021;-37
2021/03/22 05:25:36;;;;;;;22.88;6.95;;;5.50;99.00;;;;;;5065112;28;20061;-34
2021/03/22 05:28:10;;;;;;;18.45;6.50;;;5.40;99.10;;;;;;5065084;28;20025;-38
2021/03/22 05:30:38;;;;;;;16.40;5.75;;;5.40;99.00;;;;;;5064727;28;20060;-35
2021/03/22 05:33:07;;;;;;;14.48;5.82;;;5.40;99.10;;;;;;5064558;28;20480;-39
2021/03/22 05:35:33;;;;;;;14.82;6.40;;;5.40;99.00;;;;;;5065104;28;20028;-39
2021/03/22 05:37:59;;;;;;;15.43;6.00;;;5.40;98.90;;;;;;5064575;28;20024;-37
2021/03/22 05:40:39;;;;;;;14.90;5.22;;;5.50;99.00;;;;;;5064846;28;20119;-38
2021/03/22 05:43:07;;;;;;;13.05;5.30;;;5.50;98.90;;;;;;5065202;28;20035;-37
2021/03/22 05:46:00;;;;;;;13.07;5.32;;;5.50;98.80;;;;;;5064638;28;20032;-40
2021/03/22 05:48:42;;;;;;;13.25;5.22;;;5.50;98.70;;;;;;5064078;28;20460;-36
2021/03/22 05:51:26;;;;;;;16.42;5.22;;;5.50;98.60;;;;;;5064415;28;20028;-37
2021/03/22 05:54:14;;;;;;;14.85;5.30;;;5.50;98.60;;;;;;5064601;28;20013;-37
2021/03/22 05:57:00;;;;;;;16.05;5.07;;;5.50;98.60;;;;;;5064350;28;20143;-39
2021/03/22 05:59:44;;;;;;;13.52;4.88;;;5.60;98.60;;;;;;5064258;28;20042;-37
2021/03/22 06:02:31;;;;;;;11.00;4.22;;;5.50;98.70;;;;;;5044564;28;20025;-37
2021/03/22 06:05:04;;;;;;;14.63;3.88;;;5.50;98.60;;;;;;5062342;28;20314;-39
2021/03/22 06:07:36;;;;;;;11.55;4.13;;;5.50;98.70;;;;;;5064870;28;20064;-37
2021/03/22 06:10:12;;;;;;;12.63;4.22;;;5.50;98.60;;;;;;5064592;28;20117;-37
2021/03/22 06:12:56;;;;;;;11.85;3.65;;;5.50;98.60;;;;;;5064029;28;20032;-37
2021/03/22 06:15:34;;;;;;;8.32;3.05;;;5.50;98.60;;;;;;5064183;28;20035;-36
2021/03/22 06:18:25;;;;;;;10.55;3.45;;;5.50;98.60;;;;;;5065151;28;20048;-37
2021/03/22 06:20:56;;;;;;;9.82;3.80;;;5.50;98.70;;;;;;5063556;28;20024;-39
2021/03/22 06:23:40;;;;;;;9.18;3.10;;;5.50;98.80;;;;;;5064575;28;20020;-37
2021/03/22 06:26:31;;;;;;;10.40;3.05;;;5.50;98.80;;;;;;5063952;28;20057;-36
2021/03/22 06:29:00;;;;;;;10.48;3.47;;;5.50;98.70;;;;;;5064587;28;20036;-37
2021/03/22 06:31:26;;;;;;;9.10;3.35;;;5.60;98.70;;;;;;5064348;28;20016;-35
2021/03/22 06:33:58;;;;;;;10.00;3.50;;;5.60;98.60;;;;;;5064124;28;20028;-38
2021/03/22 06:36:24;;;;;;;7.78;2.70;;;5.60;98.60;;;;;;5060580;28;20029;-37
2021/03/22 06:38:58;;;;;;;12.00;3.60;;;5.70;98.60;;;;;;5064287;28;20021;-38
2021/03/22 06:41:30;;;;;;;9.43;3.65;;;5.70;98.80;;;;;;5064091;28;20055;-39
2021/03/22 06:43:57;;;;;;;8.23;3.03;;;5.70;98.80;;;;;;5064787;28;20056;-38
2021/03/22 06:46:24;;;;;;;10.38;3.10;;;5.70;98.70;;;;;;5063918;28;20039;-38
2021/03/22 06:49:02;;;;;;;6.93;2.72;;;5.70;98.90;;;;;;5064107;28;20040;-36
2021/03/22 06:51:28;;;;;;;8.35;3.08;;;5.70;98.80;;;;;;5062325;28;20031;-38
2021/03/22 06:53:59;;;;;;;7.53;2.80;;;5.70;98.70;;;;;;5063934;28;20127;-40
2021/03/22 06:56:28;;;;;;;11.38;3.13;;;5.80;98.80;;;;;;5059120;28;20064;-40
2021/03/22 06:59:23;;;;;;;6.80;2.60;;;5.80;98.70;;;;;;5043494;28;20130;-38
2021/03/22 07:01:50;;;;;;;8.13;3.13;;;5.80;98.80;;;;;;5059944;28;20407;-37
2021/03/22 07:04:25;;;;;;;5.65;2.50;;;5.90;98.70;;;;;;5064180;28;20020;-38
2021/03/22 07:07:11;;;;;;;9.70;2.47;;;5.90;98.60;;;;;;5063004;28;20072;-34
2021/03/22 07:09:57;;;;;;;8.25;2.80;;;6.00;98.70;;;;;;5063226;28;20048;-37
2021/03/22 07:12:25;;;;;;;9.57;2.88;;;6.00;98.50;;;;;;5062999;28;20036;-38
2021/03/22 07:14:52;;;;;;;5.88;2.40;;;6.00;98.50;;;;;;5062455;28;20740;-34
2021/03/22 07:17:23;;;;;;;7.07;2.00;;;6.00;98.50;;;;;;5062753;28;20035;-38
2021/03/22 07:20:24;;;;;;;9.02;2.72;;;6.00;98.50;;;;;;5063163;28;20028;-36
2021/03/22 07:22:49;;;;;;;6.72;2.35;;;6.00;98.60;;;;;;5062168;28;20035;-37
2021/03/22 07:25:38;;;;;;;4.32;2.10;;;6.00;98.70;;;;;;5064935;28;20036;-37
2021/03/22 07:28:30;;;;;;;10.02;2.78;;;5.90;98.70;;;;;;5067070;28;20036;-35
2021/03/22 07:31:35;;;;;;;5.10;2.20;;;5.90;98.70;;;;;;5067748;28;20251;-35
2021/03/22 07:34:19;;;;;;;4.88;2.30;;;5.90;98.70;;;;;;5059762;28;20456;-38
2021/03/22 07:37:08;;;;;;;8.05;2.30;;;5.90;98.70;;;;;;5067352;28;20431;-34
2021/03/22 07:40:04;;;;;;;8.05;2.25;;;5.90;98.60;;;;;;5067210;28;20548;-37
2021/03/22 07:42:40;;;;;;;6.60;2.35;;;5.90;98.50;;;;;;5067739;28;20032;-45
2021/03/22 07:45:27;;;;;;;6.38;2.30;;;5.90;98.40;;;;;;5067149;28;20031;-39
2021/03/22 07:48:31;;;;;;;5.78;2.22;;;5.90;98.50;;;;;;5066918;28;20480;-38
2021/03/22 07:51:03;;;;;;;6.95;2.10;;;5.90;98.50;;;;;;5046270;28;20045;-38
2021/03/22 07:53:38;;;;;;;3.88;1.65;;;5.90;98.50;;;;;;5065042;28;20060;-38
2021/03/22 07:56:10;;;;;;;4.47;2.15;;;5.90;98.60;;;;;;5067876;28;20033;-37
2021/03/22 07:59:09;;;;;;;7.28;2.40;;;6.00;98.70;;;;;;5066390;28;20056;-38
2021/03/22 08:01:54;;;;;;;4.15;1.60;;;6.10;98.60;;;;;;5067244;28;20063;-38
2021/03/22 08:05:09;;;;;;;6.05;2.17;;;6.10;98.60;;;;;;5067145;28;20024;-37
2021/03/22 08:07:57;;;;;;;6.03;2.17;;;6.20;98.50;;;;;;5065519;28;20132;-37
2021/03/22 08:10:58;;;;;;;4.82;1.92;;;6.30;98.40;;;;;;5066695;28;20505;-40
2021/03/22 08:13:55;;;;;;;4.25;1.92;;;6.50;98.30;;;;;;5066016;28;20032;-36
2021/03/22 08:16:46;;;;;;;4.22;1.73;;;6.50;98.20;;;;;;5066793;28;20036;-39
2021/03/22 08:19:25;;;;;;;4.28;2.10;;;6.60;98.20;;;;;;5066587;28;20104;-37
2021/03/22 08:22:18;;;;;;;5.88;2.20;;;6.60;98.20;;;;;;5047156;28;20017;-37
2021/03/22 08:25:11;;;;;;;7.13;2.20;;;6.60;98.10;;;;;;5065809;28;20115;-39
2021/03/22 08:27:40;;;;;;;4.28;2.00;;;6.60;98.00;;;;;;5066101;28;20456;-36
2021/03/22 08:30:29;;;;;;;4.18;1.70;;;6.60;98.00;;;;;;5065878;28;20036;-33
2021/03/22 08:33:10;;;;;;;3.45;1.88;;;6.70;98.00;;;;;;5065922;28;20370;-35
2021/03/22 08:35:44;;;;;;;3.20;1.73;;;6.70;98.00;;;;;;5064571;28;20035;-33
2021/03/22 08:38:20;;;;;;;5.13;2.20;;;6.80;98.00;;;;;;5065083;28;20534;-38
2021/03/22 08:40:57;;;;;;;3.42;1.90;;;6.90;97.90;;;;;;5066178;28;20059;-35
2021/03/22 08:43:25;;;;;;;7.72;2.75;;;7.00;97.80;;;;;;5066017;28;20032;-35
2021/03/22 08:46:04;;;;;;;3.92;1.98;;;7.10;97.60;;;;;;5066133;28;20097;-37
2021/03/22 08:48:33;;;;;;;4.88;1.95;;;7.20;97.50;;;;;;5065844;28;20462;-37
2021/03/22 08:51:02;;;;;;;6.05;2.50;;;7.20;97.30;;;;;;5066578;28;20025;-38
2021/03/22 08:53:39;;;;;;;8.80;2.95;;;7.30;97.20;;;;;;5066300;28;20024;-37
2021/03/22 08:56:25;;;;;;;5.05;2.50;;;7.30;96.40;;;;;;5062290;28;20082;-38
2021/03/22 08:58:53;;;;;;;7.47;2.80;;;7.30;96.60;;;;;;5066378;28;20440;-43
2021/03/22 09:01:25;;;;;;;10.13;3.00;;;7.40;96.70;;;;;;5065798;28;20021;-39
2021/03/22 09:03:52;;;;;;;6.00;2.58;;;7.40;96.60;;;;;;5065860;28;20771;-38
2021/03/22 09:06:28;;;;;;;6.93;2.88;;;7.40;96.60;;;;;;5066012;28;20089;-34
2021/03/22 09:08:59;;;;;;;7.75;3.00;;;7.30;96.70;;;;;;5065419;28;20032;-40
2021/03/22 09:13:53;;;;;;;11.93;3.63;;;7.30;96.70;;;;;;5065737;28;20040;-38
2021/03/22 09:16:22;;;;;;;8.73;3.08;;;7.40;96.70;;;;;;5065016;28;20090;-33
2021/03/22 09:19:09;;;;;;;6.65;3.20;;;7.50;96.40;;;;;;5063561;28;20136;-38
2021/03/22 09:21:38;;;;;;;8.13;3.00;;;7.60;96.40;;;;;;5065751;28;20128;-37
2021/03/22 09:24:24;;;;;;;9.40;3.20;;;7.60;96.10;;;;;;5064632;28;20031;-37
2021/03/22 09:26:54;;;;;;;11.00;3.00;;;7.50;96.20;;;;;;5064246;28;20016;-38
2021/03/22 09:29:37;;;;;;;9.68;2.85;;;7.50;95.90;;;;;;5065248;28;20593;-39
2021/03/22 09:32:03;;;;;;;;;;;7.40;96.00;;;;;;5062279;28;20471;-38
2021/03/22 09:34:47;;;;;;;12.23;3.00;;;7.40;96.10;;;;;;5065752;28;19912;-38
2021/03/22 09:37:43;;;;;;;5.95;2.72;;;7.40;96.20;;;;;;5064990;28;20030;-38
2021/03/22 09:40:29;;;;;;;8.45;2.50;;;7.30;96.40;;;;;;5064806;28;20025;-39
2021/03/22 09:45:34;;;;;;;5.18;2.13;;;7.20;96.60;;;;;;5062535;28;20443;-39
2021/03/22 09:48:14;;;;;;;6.85;2.97;;;7.30;96.60;;;;;;5065018;28;20016;-40
2021/03/22 09:50:39;;;;;;;5.22;2.42;;;7.30;96.40;;;;;;5065204;28;20102;-40
2021/03/22 09:53:13;;;;;;;5.68;2.30;;;7.40;96.00;;;;;;5065159;28;20531;-40
2021/03/22 09:55:51;;;;;;;8.95;2.95;;;7.50;96.30;;;;;;5065325;28;20032;-43
2021/03/22 09:58:35;;;;;;;2.65;1.33;;;7.60;95.90;;;;;;5062227;28;20115;-39
2021/03/22 10:01:22;;;;;;;5.45;1.73;;;7.60;95.50;;;;;;5065455;28;20037;-37
2021/03/22 10:04:15;;;;;;;2.90;1.48;;;7.60;95.30;;;;;;5065023;28;20039;-35
2021/03/22 10:06:40;;;;;;;3.97;1.65;;;7.60;95.20;;;;;;5062863;28;20149;-39
2021/03/22 10:09:19;;;;;;;4.45;1.60;;;7.50;95.20;;;;;;5065180;28;20503;-36
2021/03/22 10:11:47;;;;;;;2.42;1.52;;;7.50;95.40;;;;;;5064539;28;20047;-37
2021/03/22 10:14:35;;;;;;;3.90;1.60;;;7.50;95.60;;;;;;5064574;28;20021;-37
2021/03/22 10:17:01;;;;;;;2.28;1.25;;;7.70;93.70;;;;;;5065417;28;20054;-36
2021/03/22 10:19:32;;;;;;;3.28;1.25;;;7.80;94.40;;;;;;5064505;28;20029;-39
2021/03/22 10:22:03;;;;;;;3.85;0.98;;;7.90;94.30;;;;;;5064798;28;20703;-40
2021/03/22 10:24:36;;;;;;;2.72;1.00;;;8.10;94.30;;;;;;5054626;28;20029;-35
2021/03/22 10:27:18;;;;;;;4.60;1.05;;;8.20;93.90;;;;;;5064477;28;20017;-39
2021/03/22 10:29:43;;;;;;;7.13;1.23;;;8.40;93.90;;;;;;5054493;28;20032;-40
2021/03/22 10:32:09;;;;;;;4.57;1.30;;;8.40;92.80;;;;;;5063960;28;20081;-38
2021/03/22 10:34:52;;;;;;;4.85;1.35;;;8.40;92.80;;;;;;5064897;28;20033;-39
2021/03/22 10:37:18;;;;;;;7.05;1.55;;;8.30;92.60;;;;;;5064592;28;20032;-38
2021/03/22 10:39:48;;;;;;;2.00;1.10;;;8.20;92.70;;;;;;5064081;28;20078;-38
2021/03/22 10:42:26;;;;;;;3.50;1.00;;;8.30;93.10;;;;;;5064204;28;20036;-37
2021/03/22 10:44:56;;;;;;;1.73;1.10;;;8.30;93.10;;;;;;5062708;28;20036;-38
2021/03/22 10:47:28;;;;;;;3.97;1.17;;;8.30;93.00;;;;;;5063923;28;20115;-34
2021/03/22 10:49:53;;;;;;;5.10;1.42;;;8.40;93.10;;;;;;5061348;28;20048;-37
2021/03/22 10:52:25;;;;;;;2.10;1.15;;;8.50;93.20;;;;;;5064415;28;20074;-39
2021/03/22 10:54:52;;;;;;;3.20;1.10;;;8.50;92.80;;;;;;5063805;28;20020;-36
2021/03/22 10:57:37;;;;;;;4.40;1.23;;;8.60;93.00;;;;;;5064653;28;20287;-36
2021/03/22 11:00:30;;;;;;;2.45;0.80;;;8.70;92.50;;;;;;5063235;28;20037;-33
2021/03/22 11:02:58;;;;;;;2.90;1.20;;;8.80;92.70;;;;;;5068207;28;20378;-40
2021/03/22 11:05:40;;;;;;;4.13;0.80;;;8.90;91.60;;;;;;5064841;28;20090;-36
2021/03/22 11:08:19;;;;;;;2.10;1.00;;;8.90;92.10;;;;;;5065477;28;20177;-39
2021/03/22 11:10:47;;;;;;;5.18;1.10;;;9.00;91.90;;;;;;5067981;28;20039;-37
2021/03/22 11:13:22;;;;;;;1.65;1.00;;;9.00;91.20;;;;;;5067352;28;20099;-36
2021/03/22 11:15:49;;;;;;;2.40;1.10;;;8.90;89.50;;;;;;5064652;28;20023;-39
2021/03/22 11:18:20;;;;;;;3.15;0.90;;;8.80;90.40;;;;;;5067723;28;20033;-38
2021/03/22 11:20:49;;;;;;;4.82;1.02;;;8.80;90.00;;;;;;5066856;28;20718;-38
2021/03/22 11:23:26;;;;;;;6.32;1.65;;;8.80;90.80;;;;;;5060584;28;20055;-40
2021/03/22 11:25:54;;;;;;;3.17;1.50;;;8.90;90.40;;;;;;5063551;28;20103;-38
2021/03/22 11:28:20;;;;;;;2.28;1.10;;;8.90;90.30;;;;;;5066509;28;20071;-35
2021/03/22 11:30:54;;;;;;;2.75;1.10;;;8.80;90.30;;;;;;5066611;28;20064;-39
2021/03/22 11:33:43;;;;;;;3.42;1.05;;;8.80;90.80;;;;;;5067336;28;20040;-37
2021/03/22 11:36:21;;;;;;;1.83;0.95;;;8.80;91.00;;;;;;5065800;28;20831;-40
2021/03/22 11:38:49;;;;;;;3.50;1.35;;;8.80;91.20;;;;;;5065039;28;20029;-38
2021/03/22 11:41:36;;;;;;;3.40;1.40;;;8.80;90.30;;;;;;5066534;28;20036;-38
2021/03/22 11:44:17;;;;;;;3.90;1.77;;;8.80;90.80;;;;;;5066922;28;20025;-34
2021/03/22 11:46:45;;;;;;;2.28;1.20;;;8.80;90.70;;;;;;5066831;28;20028;-39
2021/03/22 11:49:29;;;;;;;3.95;1.23;;;8.80;90.70;;;;;;5066502;28;20419;-38
2021/03/22 11:52:04;;;;;;;3.45;1.20;;;8.80;90.50;;;;;;5066877;28;20541;-38
2021/03/22 11:54:31;;;;;;;3.22;1.10;;;8.80;90.60;;;;;;5066193;28;20025;-37
2021/03/22 11:57:02;;;;;;;2.45;1.15;;;8.80;90.40;;;;;;5066652;28;20119;-39
2021/03/22 11:59:28;;;;;;;2.22;1.10;;;8.90;90.50;;;;;;5067345;28;20028;-39
2021/03/22 12:02:11;;;;;;;4.93;1.20;;;9.00;90.60;;;;;;5067037;28;20594;-40
2021/03/22 12:04:49;;;;;;;5.55;1.40;;;9.00;90.10;;;;;;5066435;28;20033;-38
2021/03/22 12:07:31;;;;;;;4.25;1.52;;;9.00;89.00;;;;;;5066976;28;20391;-40
2021/03/22 12:09:59;;;;;;;4.60;1.73;;;9.00;90.10;;;;;;5065728;28;20043;-34
2021/03/22 12:12:24;;;;;;;5.63;1.25;;;9.00;90.30;;;;;;5065246;28;20750;-38
2021/03/22 12:14:50;;;;;;;2.67;1.27;;;9.10;90.60;;;;;;5067040;28;20055;-39
2021/03/22 12:17:23;;;;;;;4.82;1.30;;;9.30;90.50;;;;;;5066075;28;20128;-38
2021/03/22 12:19:49;;;;;;;3.78;1.20;;;9.40;90.10;;;;;;5065865;28;20029;-35
2021/03/22 12:22:19;;;;;;;2.17;1.10;;;9.40;88.30;;;;;;5066051;28;20024;-35
2021/03/22 12:24:45;;;;;;;2.42;0.93;;;9.40;89.00;;;;;;5046322;28;20029;-39
2021/03/22 12:27:12;;;;;;;4.45;1.33;;;9.40;88.80;;;;;;5060675;28;20111;-39
2021/03/22 12:29:38;;;;;;;6.07;1.85;;;9.40;88.60;;;;;;5066152;28;20070;-39
2021/03/22 12:32:05;;;;;;;3.50;1.10;;;9.50;88.40;;;;;;5065703;28;20065;-38
2021/03/22 12:34:30;;;;;;;2.85;0.75;;;9.60;84.90;;;;;;5066670;28;20369;-38
2021/03/22 12:36:56;;;;;;;1.73;0.70;;;9.60;84.70;;;;;;5066348;28;20029;-34
2021/03/22 12:39:29;;;;;;;3.75;1.05;;;9.60;83.30;;;;;;5065649;28;20090;-36
2021/03/22 12:42:14;;;;;;;2.75;0.70;;;9.60;83.30;;;;;;5066474;28;20395;-36
2021/03/22 12:44:39;;;;;;;1.33;0.80;;;9.70;81.80;;;;;;5066041;28;20048;-38
2021/03/22 12:47:15;;;;;;;2.17;0.70;;;9.70;82.80;;;;;;5065539;28;20429;-37
2021/03/22 12:49:40;;;;;;;3.33;1.33;;;9.80;83.40;;;;;;5066088;28;20047;-38
2021/03/22 12:52:06;;;;;;;1.92;1.05;;;10.00;83.80;;;;;;5065998;28;20372;-38
2021/03/22 12:54:32;;;;;;;2.60;1.30;;;10.10;82.00;;;;;;5065597;28;20070;-37
2021/03/22 12:56:57;;;;;;;2.30;0.68;;;10.10;79.00;;;;;;5065835;28;20539;-38
2021/03/22 12:59:40;;;;;;;2.63;0.93;;;10.00;78.60;;;;;;5066110;28;20805;-39
2021/03/22 13:02:22;;;;;;;1.05;0.60;;;10.00;79.10;;;;;;5065183;28;20100;-39
2021/03/22 13:04:48;;;;;;;1.52;1.10;;;9.90;77.70;;;;;;5054781;28;20029;-40
2021/03/22 13:07:16;;;;;;;1.98;0.90;;;9.90;79.40;;;;;;5065430;28;20017;-38
2021/03/22 13:09:41;;;;;;;2.65;1.00;;;9.90;78.20;;;;;;5065161;28;20507;-36
2021/03/22 13:12:18;;;;;;;2.08;0.90;;;9.90;76.50;;;;;;5065342;28;20128;-37
2021/03/22 13:14:44;;;;;;;2.42;0.95;;;9.80;78.40;;;;;;5062067;28;20020;-39
2021/03/22 13:17:13;;;;;;;0.85;0.70;;;9.90;78.90;;;;;;5065238;28;20031;-38
2021/03/22 13:19:39;;;;;;;3.80;1.13;;;9.90;79.90;;;;;;5064935;28;20027;-38
2021/03/22 13:22:07;;;;;;;3.03;0.95;;;9.90;79.30;;;;;;5064606;28;20028;-38
2021/03/22 13:24:33;;;;;;;1.73;0.85;;;9.90;78.50;;;;;;5062479;28;20111;-38
2021/03/22 13:26:58;;;;;;;1.42;0.90;;;9.90;80.00;;;;;;5063254;28;20127;-38
2021/03/22 13:29:24;;;;;;;3.00;0.93;;;9.90;80.60;;;;;;5064250;28;20137;-36
2021/03/22 13:31:50;;;;;;;6.15;1.95;;;10.00;80.00;;;;;;5064636;28;20371;-38